Simsboro, Texas
Current Conditions -  °F | °C
As of 10:15 PM on Tuesday 21 Oct 2014 (Local Time) from KLXY Reporting Station
Clear Clear  
Wind Chill: 67°   Ceiling: Unl
Heat Index: 67°   Visibility: 10mi
Dew Point: 60°   Wind: 3mph
Humidity: 79%   Direction: 90°E
Pressure: 30.06"   Gusts: NA
Location:  31.6463°N, 96.2786°W
Report Text: KLXY 220315Z AUTO 09003KT 10SM CLR 20/16 A3006 RMK AO2 T01950158
Loading
Personal Weather Stations






























Interactive Weather Map
Tropical Storm Tracking
New forecast layout! Learn more

10-Day Weather Forecast

Advertisements
Track Severe Weather on mobile